createdAt,value
2023-04-23T00:00:07.028Z,8.57
2023-04-23T00:02:34.260Z,8.10
2023-04-23T00:05:06.155Z,11.57
2023-04-23T00:07:34.124Z,7.80
2023-04-23T00:10:03.381Z,10.17
2023-04-23T00:12:30.394Z,8.43
2023-04-23T00:14:56.975Z,8.73
2023-04-23T00:17:23.515Z,7.87
2023-04-23T00:19:49.982Z,8.77
2023-04-23T00:22:17.145Z,8.47
2023-04-23T00:24:43.679Z,8.13
2023-04-23T00:27:10.079Z,8.60
2023-04-23T00:29:36.469Z,11.83
2023-04-23T00:32:03.384Z,9.40
2023-04-23T00:34:29.963Z,9.93
2023-04-23T00:36:56.429Z,10.90
2023-04-23T00:39:22.782Z,10.00
2023-04-23T00:41:49.192Z,8.80
2023-04-23T00:44:15.516Z,9.90
2023-04-23T00:46:42.407Z,9.87
2023-04-23T00:49:09.016Z,9.10
2023-04-23T00:51:35.323Z,9.70
2023-04-23T00:54:01.704Z,9.07
2023-04-23T00:56:28.279Z,12.87
2023-04-23T00:58:54.991Z,9.30
2023-04-23T01:01:23.440Z,10.53
2023-04-23T01:03:52.652Z,10.20
2023-04-23T01:06:19.495Z,14.93
2023-04-23T01:08:47.536Z,11.23
2023-04-23T01:11:14.839Z,11.60
2023-04-23T01:13:42.099Z,9.00
2023-04-23T01:16:09.246Z,10.27
2023-04-23T01:18:35.915Z,10.80
2023-04-23T01:21:03.860Z,13.33
2023-04-23T01:23:30.965Z,12.73
2023-04-23T01:25:58.244Z,10.23
2023-04-23T01:28:24.710Z,11.80
2023-04-23T01:30:51.206Z,10.63
2023-04-23T01:33:19.292Z,8.80
2023-04-23T01:35:47.480Z,11.07
2023-04-23T01:38:14.497Z,10.77
2023-04-23T01:40:40.832Z,12.23
2023-04-23T01:43:07.718Z,10.80
2023-04-23T01:45:34.092Z,9.87
2023-04-23T01:48:00.905Z,12.30
2023-04-23T01:50:29.011Z,12.13
2023-04-23T01:52:55.610Z,10.60
2023-04-23T01:55:23.498Z,12.47
2023-04-23T01:57:51.085Z,12.50
2023-04-23T02:00:17.973Z,10.97
2023-04-23T02:02:45.299Z,11.33
2023-04-23T02:05:18.230Z,13.00
2023-04-23T02:07:47.212Z,10.93
2023-04-23T02:10:14.256Z,11.30
2023-04-23T02:12:40.771Z,13.63
2023-04-23T02:15:09.013Z,13.77
2023-04-23T02:17:35.714Z,13.40
2023-04-23T02:20:02.477Z,15.07
2023-04-23T02:22:29.079Z,14.30
2023-04-23T02:24:55.394Z,12.07
2023-04-23T02:27:22.047Z,12.90
2023-04-23T02:29:49.258Z,13.73
2023-04-23T02:32:15.751Z,12.00
2023-04-23T02:34:42.392Z,14.03
2023-04-23T02:37:09.166Z,15.80
2023-04-23T02:39:35.563Z,12.83
2023-04-23T02:42:01.885Z,15.00
2023-04-23T02:44:28.214Z,14.43
2023-04-23T02:46:54.559Z,13.50
2023-04-23T02:49:20.875Z,15.53
2023-04-23T02:51:47.455Z,14.27
2023-04-23T02:54:13.926Z,13.00
2023-04-23T02:56:40.593Z,12.70
2023-04-23T02:59:08.348Z,14.33
2023-04-23T03:01:34.734Z,12.60
2023-04-23T03:04:01.655Z,15.87
2023-04-23T03:06:28.102Z,16.77
2023-04-23T03:08:54.446Z,12.57
2023-04-23T03:11:21.130Z,12.87
2023-04-23T03:13:47.469Z,16.20
2023-04-23T03:16:14.041Z,14.70
2023-04-23T03:18:40.532Z,14.37
2023-04-23T03:21:06.856Z,13.17
2023-04-23T03:23:33.183Z,11.60
2023-04-23T03:25:59.599Z,15.13
2023-04-23T03:28:26.014Z,13.67
2023-04-23T03:30:52.371Z,13.37
2023-04-23T03:33:18.727Z,13.53
2023-04-23T03:35:45.104Z,13.07
2023-04-23T03:38:11.517Z,11.90
2023-04-23T03:40:37.909Z,12.27
2023-04-23T03:43:04.240Z,12.33
2023-04-23T03:45:31.124Z,12.43
2023-04-23T03:47:57.618Z,11.30
2023-04-23T03:50:24.068Z,11.73
2023-04-23T03:52:52.470Z,10.43
2023-04-23T03:55:20.521Z,13.07
2023-04-23T03:57:46.957Z,15.73
2023-04-23T04:00:13.625Z,11.47
2023-04-23T04:02:40.923Z,12.90
2023-04-23T04:05:14.010Z,12.77
2023-04-23T04:07:41.104Z,12.73
2023-04-23T04:10:08.052Z,12.87
2023-04-23T04:12:34.491Z,12.93
2023-04-23T04:15:02.817Z,13.43
2023-04-23T04:17:29.224Z,13.80
2023-04-23T04:19:55.637Z,13.50
2023-04-23T04:22:22.008Z,12.30
2023-04-23T04:24:48.373Z,13.03
2023-04-23T04:27:14.993Z,15.57
2023-04-23T04:29:41.407Z,13.10
2023-04-23T04:32:09.382Z,13.63
2023-04-23T04:34:38.187Z,13.27
2023-04-23T04:37:04.861Z,11.30
2023-04-23T04:39:31.222Z,11.87
2023-04-23T04:41:57.599Z,12.57
2023-04-23T04:44:25.169Z,10.47
2023-04-23T04:46:52.684Z,10.73
2023-04-23T04:49:19.527Z,10.23
2023-04-23T04:51:46.082Z,9.33
2023-04-23T04:54:12.383Z,10.50
2023-04-23T04:56:38.848Z,10.10
2023-04-23T04:59:05.160Z,9.97
2023-04-23T05:01:33.223Z,9.93
2023-04-23T05:03:59.975Z,8.73
2023-04-23T05:06:28.600Z,10.80
2023-04-23T05:08:55.252Z,9.03
2023-04-23T05:11:21.598Z,11.40
2023-04-23T05:13:48.601Z,9.67
2023-04-23T05:16:15.640Z,9.80
2023-04-23T05:18:42.243Z,11.37
2023-04-23T05:21:11.185Z,10.43
2023-04-23T05:23:37.563Z,10.07
2023-04-23T05:26:04.374Z,11.50
2023-04-23T05:28:31.410Z,10.37
2023-04-23T05:30:58.425Z,10.57
2023-04-23T05:33:30.729Z,11.63
2023-04-23T05:35:59.661Z,11.13
2023-04-23T05:38:26.101Z,11.77
2023-04-23T05:40:52.737Z,13.30
2023-04-23T05:43:19.096Z,11.20
2023-04-23T05:45:45.421Z,10.87
2023-04-23T05:48:11.864Z,9.77
2023-04-23T05:50:38.232Z,9.43
2023-04-23T05:53:04.643Z,8.90
2023-04-23T05:55:31.017Z,9.90
2023-04-23T05:57:57.334Z,8.50
2023-04-23T06:00:23.727Z,9.50
2023-04-23T06:02:50.425Z,8.37
2023-04-23T06:05:16.996Z,8.50
2023-04-23T06:07:43.489Z,7.77
2023-04-23T06:10:10.846Z,8.30
2023-04-23T06:12:41.873Z,8.30
2023-04-23T06:15:09.387Z,7.13
2023-04-23T06:17:36.416Z,8.40
2023-04-23T06:20:03.219Z,8.70
2023-04-23T06:22:29.726Z,8.33
2023-04-23T06:24:56.203Z,7.50
2023-04-23T06:27:22.640Z,8.40
2023-04-23T06:29:48.997Z,7.70
2023-04-23T06:32:17.208Z,9.93
2023-04-23T06:34:59.350Z,8.70
2023-04-23T06:37:29.850Z,7.27
2023-04-23T06:39:56.481Z,6.63
2023-04-23T06:42:22.802Z,9.83
2023-04-23T06:44:49.182Z,9.77
2023-04-23T06:47:15.536Z,8.10
2023-04-23T06:49:41.828Z,7.03
2023-04-23T06:52:08.286Z,6.80
2023-04-23T06:54:34.605Z,9.07
2023-04-23T06:57:01.326Z,7.57
2023-04-23T06:59:27.627Z,8.20
2023-04-23T07:01:53.919Z,8.87
2023-04-23T07:04:20.376Z,8.70
2023-04-23T07:06:46.706Z,8.67
2023-04-23T07:09:13.154Z,7.63
2023-04-23T07:11:39.534Z,7.10
2023-04-23T07:14:06.417Z,8.67
2023-04-23T07:16:33.881Z,7.20
2023-04-23T07:19:02.026Z,6.40
2023-04-23T07:21:28.948Z,8.00
2023-04-23T07:24:06.512Z,6.93
2023-04-23T07:26:33.893Z,7.80
2023-04-23T07:29:01.244Z,7.10
2023-04-23T07:31:28.464Z,7.97
2023-04-23T07:33:56.098Z,7.53
2023-04-23T07:36:22.527Z,7.83
2023-04-23T07:38:48.820Z,6.87
2023-04-23T07:41:15.295Z,6.90
2023-04-23T07:43:42.453Z,7.57
2023-04-23T07:46:09.207Z,6.80
2023-04-23T07:48:35.890Z,6.93
2023-04-23T07:51:02.720Z,6.93
2023-04-23T07:53:29.147Z,8.53
2023-04-23T07:55:58.597Z,7.77
2023-04-23T07:58:25.590Z,9.33
2023-04-23T08:00:52.344Z,7.40
2023-04-23T08:03:18.879Z,9.37
2023-04-23T08:05:45.427Z,9.03
2023-04-23T08:08:13.460Z,8.37
2023-04-23T08:10:40.607Z,7.33
2023-04-23T08:13:07.609Z,7.53
2023-04-23T08:15:34.112Z,8.10
2023-04-23T08:18:00.825Z,7.17
2023-04-23T08:20:27.304Z,7.50
2023-04-23T08:22:53.892Z,7.30
2023-04-23T08:25:20.943Z,8.27
2023-04-23T08:27:47.356Z,8.50
2023-04-23T08:30:13.864Z,5.87
2023-04-23T08:32:40.764Z,7.03
2023-04-23T08:35:08.241Z,6.10
2023-04-23T08:37:34.976Z,7.63
2023-04-23T08:40:01.511Z,7.20
2023-04-23T08:42:38.515Z,8.57
2023-04-23T08:45:05.363Z,6.13
2023-04-23T08:47:32.417Z,10.37
2023-04-23T08:49:59.649Z,6.67
2023-04-23T08:52:32.962Z,7.17
2023-04-23T08:55:01.051Z,5.87
2023-04-23T08:57:27.722Z,6.97
2023-04-23T08:59:55.301Z,6.90
2023-04-23T09:02:22.716Z,5.40
2023-04-23T09:04:51.441Z,5.30
2023-04-23T09:07:19.024Z,5.90
2023-04-23T09:09:45.502Z,6.07
2023-04-23T09:12:11.810Z,6.23
2023-04-23T09:14:38.143Z,6.43
2023-04-23T09:17:05.175Z,5.30
2023-04-23T09:19:31.575Z,7.10
2023-04-23T09:21:59.119Z,6.03
2023-04-23T09:24:26.037Z,4.90
2023-04-23T09:26:53.351Z,6.30
2023-04-23T09:29:23.200Z,5.57
2023-04-23T09:31:51.537Z,5.37
2023-04-23T09:34:22.554Z,7.03
2023-04-23T09:36:50.965Z,4.33
2023-04-23T09:39:20.052Z,5.10
2023-04-23T09:41:46.718Z,5.57
2023-04-23T09:44:18.303Z,4.78
2023-04-23T09:46:45.182Z,3.05
2023-04-23T09:49:12.794Z,5.53
2023-04-23T09:51:46.161Z,4.75
2023-04-23T09:54:18.483Z,4.90
2023-04-23T09:56:49.144Z,3.97
2023-04-23T09:59:46.166Z,3.90
2023-04-23T10:02:15.317Z,3.90
2023-04-23T10:04:41.988Z,2.45
2023-04-23T10:09:43.059Z,2.97
2023-04-23T10:12:27.786Z,5.53
2023-04-23T10:15:00.462Z,6.50
2023-04-23T10:17:27.331Z,2.25
2023-04-23T10:19:55.514Z,3.15
2023-04-23T10:22:22.825Z,2.50
2023-04-23T10:24:58.569Z,3.22
2023-04-23T10:27:48.562Z,7.78
2023-04-23T10:30:16.257Z,4.65
2023-04-23T10:32:44.809Z,4.10
2023-04-23T10:35:11.333Z,5.00
2023-04-23T10:37:38.575Z,3.13
2023-04-23T10:40:11.385Z,3.25
2023-04-23T10:42:39.785Z,2.63
2023-04-23T10:45:23.358Z,6.00
2023-04-23T10:47:52.717Z,4.10
2023-04-23T10:50:22.598Z,3.33
2023-04-23T10:52:53.285Z,5.00
2023-04-23T10:55:22.050Z,4.53
2023-04-23T10:58:05.703Z,3.92
2023-04-23T11:00:41.123Z,4.50
2023-04-23T11:03:37.190Z,4.70
2023-04-23T11:06:06.537Z,3.40
2023-04-23T11:08:35.471Z,4.15
2023-04-23T11:11:06.957Z,6.03
2023-04-23T11:13:33.359Z,5.63
2023-04-23T11:16:22.410Z,3.85
2023-04-23T11:19:12.125Z,4.90
2023-04-23T11:21:58.388Z,3.97
2023-04-23T11:24:28.553Z,4.25
2023-04-23T11:26:55.267Z,3.13
2023-04-23T11:29:24.020Z,5.13
2023-04-23T11:32:01.425Z,4.60
2023-04-23T11:34:28.890Z,4.25
2023-04-23T11:36:58.363Z,3.95
2023-04-23T11:39:24.796Z,2.90
2023-04-23T11:41:52.321Z,4.72
2023-04-23T11:44:20.688Z,3.90
2023-04-23T11:46:49.277Z,5.32
2023-04-23T11:49:17.087Z,5.28
2023-04-23T11:51:44.576Z,4.70
2023-04-23T11:54:12.014Z,3.95
2023-04-23T11:56:38.320Z,4.03
2023-04-23T11:59:05.634Z,4.65
2023-04-23T12:01:45.527Z,4.97
2023-04-23T12:04:13.908Z,4.95
2023-04-23T12:06:42.308Z,4.03
2023-04-23T12:09:10.281Z,3.30
2023-04-23T12:11:36.631Z,4.93
2023-04-23T12:14:03.649Z,4.65
2023-04-23T12:16:40.991Z,4.75
2023-04-23T12:19:09.356Z,4.18
2023-04-23T12:21:46.773Z,3.25
2023-04-23T12:24:13.117Z,3.90
2023-04-23T12:26:39.811Z,3.70
2023-04-23T12:29:07.950Z,3.63
2023-04-23T12:31:37.248Z,3.20
2023-04-23T12:34:07.870Z,3.60
2023-04-23T12:36:36.597Z,3.83
2023-04-23T12:39:26.134Z,3.63
2023-04-23T12:41:54.885Z,3.60
2023-04-23T12:44:21.942Z,6.38
2023-04-23T12:47:03.540Z,6.13
2023-04-23T12:49:31.322Z,3.67
2023-04-23T12:52:01.982Z,4.50
2023-04-23T12:54:39.475Z,6.53
2023-04-23T12:57:07.451Z,4.22
2023-04-23T12:59:34.100Z,3.47
2023-04-23T13:02:04.500Z,3.55
2023-04-23T13:04:35.294Z,4.10
2023-04-23T13:07:02.116Z,2.92
2023-04-23T13:09:29.256Z,2.22
2023-04-23T13:11:55.746Z,2.83
2023-04-23T13:14:22.077Z,2.30
2023-04-23T13:16:48.965Z,3.47
2023-04-23T13:19:17.009Z,3.13
2023-04-23T13:21:43.907Z,3.13
2023-04-23T13:24:10.202Z,2.63
2023-04-23T13:26:37.060Z,2.58
2023-04-23T13:29:03.520Z,2.60
2023-04-23T13:31:29.929Z,3.17
2023-04-23T13:33:56.333Z,2.58
2023-04-23T13:36:22.798Z,2.92
2023-04-23T13:38:49.262Z,2.58
2023-04-23T13:41:15.543Z,3.58
2023-04-23T13:43:41.896Z,3.95
2023-04-23T13:46:08.749Z,5.72
2023-04-23T13:48:35.129Z,5.57
2023-04-23T13:51:01.897Z,2.20
2023-04-23T13:53:28.713Z,2.30
2023-04-23T13:55:56.101Z,2.67
2023-04-23T13:58:23.517Z,3.90
2023-04-23T14:03:16.706Z,1.95
2023-04-23T14:05:43.087Z,4.47
2023-04-23T14:08:09.458Z,2.33
2023-04-23T14:10:35.870Z,2.25
2023-04-23T14:13:04.314Z,2.03
2023-04-23T14:15:31.049Z,1.90
2023-04-23T14:17:57.663Z,2.13
2023-04-23T14:20:24.215Z,2.47
2023-04-23T14:22:56.490Z,3.22
2023-04-23T14:25:34.300Z,2.08
2023-04-23T14:28:09.310Z,2.38
2023-04-23T14:30:35.777Z,2.20
2023-04-23T14:33:02.194Z,3.25
2023-04-23T14:35:41.813Z,3.35
2023-04-23T14:38:09.477Z,2.10
2023-04-23T14:40:35.821Z,4.47
2023-04-23T14:43:14.660Z,2.03
2023-04-23T14:45:42.046Z,1.85
2023-04-23T14:48:08.549Z,1.90
2023-04-23T14:50:34.923Z,2.45
2023-04-23T14:53:04.113Z,2.38
2023-04-23T14:55:30.873Z,2.40
2023-04-23T14:57:57.189Z,2.42
2023-04-23T15:00:23.606Z,3.90
2023-04-23T15:02:50.082Z,2.45
2023-04-23T15:05:16.669Z,3.08
2023-04-23T15:07:43.022Z,2.33
2023-04-23T15:10:11.209Z,2.65
2023-04-23T15:12:40.474Z,4.15
2023-04-23T15:15:15.581Z,3.53
2023-04-23T15:17:42.022Z,2.80
2023-04-23T15:20:08.758Z,3.75
2023-04-23T15:22:35.071Z,2.78
2023-04-23T15:25:01.461Z,4.32
2023-04-23T15:27:27.889Z,2.63
2023-04-23T15:29:54.208Z,2.58
2023-04-23T15:32:20.701Z,4.05
2023-04-23T15:34:47.047Z,4.03
2023-04-23T15:37:13.749Z,2.45
2023-04-23T15:39:40.235Z,2.40
2023-04-23T15:42:07.291Z,2.13
2023-04-23T15:44:33.770Z,2.25
2023-04-23T15:47:01.319Z,2.03
2023-04-23T15:49:27.636Z,2.33
2023-04-23T15:51:53.997Z,2.80
2023-04-23T15:54:20.316Z,3.67
2023-04-23T15:56:46.622Z,2.70
2023-04-23T15:59:12.961Z,4.53
2023-04-23T16:01:39.426Z,3.13
2023-04-23T16:04:11.274Z,2.77
2023-04-23T16:06:38.496Z,3.40
2023-04-23T16:09:07.955Z,2.53
2023-04-23T16:11:35.940Z,3.43
2023-04-23T16:14:02.516Z,4.67
2023-04-23T16:16:29.144Z,2.87
2023-04-23T16:18:57.132Z,3.40
2023-04-23T16:21:24.405Z,3.07
2023-04-23T16:23:50.796Z,1.97
2023-04-23T16:26:17.161Z,2.40
2023-04-23T16:28:44.450Z,3.07
2023-04-23T16:31:10.996Z,3.03
2023-04-23T16:33:37.397Z,12.33
2023-04-23T16:36:04.050Z,6.90
2023-04-23T16:38:30.366Z,4.77
2023-04-23T16:40:56.676Z,4.80
2023-04-23T16:43:22.952Z,2.53
2023-04-23T16:45:49.298Z,7.93
2023-04-23T16:48:17.421Z,3.33
2023-04-23T16:50:44.318Z,3.67
2023-04-23T16:53:10.996Z,2.23
2023-04-23T16:55:38.120Z,2.67
2023-04-23T16:58:05.773Z,4.70
2023-04-23T17:00:32.385Z,3.10
2023-04-23T17:02:58.882Z,1.67
2023-04-23T17:05:25.453Z,2.67
2023-04-23T17:07:52.674Z,3.40
2023-04-23T17:10:19.775Z,2.37
2023-04-23T17:12:46.130Z,3.13
2023-04-23T17:15:12.449Z,4.87
2023-04-23T17:17:38.872Z,6.30
2023-04-23T17:20:06.780Z,5.83
2023-04-23T17:22:33.114Z,4.43
2023-04-23T17:24:59.459Z,4.23
2023-04-23T17:27:26.072Z,5.03
2023-04-23T17:29:52.456Z,4.97
2023-04-23T17:32:18.817Z,2.37
2023-04-23T17:34:49.518Z,3.93
2023-04-23T17:37:21.658Z,8.10
2023-04-23T17:39:47.979Z,8.43
2023-04-23T17:42:14.420Z,5.53
2023-04-23T17:44:41.602Z,4.63
2023-04-23T17:47:13.139Z,3.97
2023-04-23T17:49:39.736Z,3.83
2023-04-23T17:52:07.072Z,3.43
2023-04-23T17:54:33.423Z,3.27
2023-04-23T17:56:59.783Z,2.40
2023-04-23T17:59:26.136Z,3.60
2023-04-23T18:01:52.905Z,6.70
2023-04-23T18:04:19.415Z,4.20
2023-04-23T18:06:45.995Z,2.07
2023-04-23T18:09:12.360Z,2.80
2023-04-23T18:11:39.730Z,1.60
2023-04-23T18:14:06.023Z,2.63
2023-04-23T18:16:32.411Z,2.40
2023-04-23T18:18:58.799Z,2.90
2023-04-23T18:21:25.164Z,2.63
2023-04-23T18:23:51.494Z,2.20
2023-04-23T18:26:17.888Z,1.80
2023-04-23T18:28:44.218Z,2.30
2023-04-23T18:31:10.786Z,5.00
2023-04-23T18:33:47.595Z,4.37
2023-04-23T18:36:32.372Z,4.20
2023-04-23T18:38:59.261Z,3.57
2023-04-23T18:41:25.660Z,5.83
2023-04-23T18:43:52.330Z,3.17
2023-04-23T18:46:18.803Z,3.50
2023-04-23T18:48:51.853Z,5.20
2023-04-23T18:51:18.086Z,4.57
2023-04-23T18:53:44.653Z,3.80
2023-04-23T18:56:11.039Z,3.40
2023-04-23T18:58:37.366Z,4.53
2023-04-23T19:01:03.801Z,1.90
2023-04-23T19:03:30.305Z,2.50
2023-04-23T19:05:57.297Z,2.20
2023-04-23T19:08:28.294Z,1.97
2023-04-23T19:10:55.808Z,3.07
2023-04-23T19:13:22.833Z,2.67
2023-04-23T19:15:52.538Z,1.87
2023-04-23T19:18:19.537Z,2.13
2023-04-23T19:20:46.137Z,1.73
2023-04-23T19:23:13.891Z,2.50
2023-04-23T19:25:40.254Z,4.00
2023-04-23T19:28:06.659Z,2.30
2023-04-23T19:30:33.036Z,1.87
2023-04-23T19:32:59.549Z,3.23
2023-04-23T19:35:26.307Z,2.30
2023-04-23T19:37:52.888Z,2.53
2023-04-23T19:40:19.277Z,3.53
2023-04-23T19:42:45.648Z,2.53
2023-04-23T19:45:12.420Z,2.80
2023-04-23T19:47:39.948Z,2.73
2023-04-23T19:50:07.305Z,3.57
2023-04-23T19:52:33.698Z,1.83
2023-04-23T19:55:00.404Z,1.90
2023-04-23T19:57:26.789Z,2.70
2023-04-23T19:59:53.113Z,1.70
2023-04-23T20:02:19.888Z,3.47
2023-04-23T20:04:46.386Z,2.97
2023-04-23T20:07:12.826Z,2.00
2023-04-23T20:09:39.927Z,4.50
2023-04-23T20:12:06.507Z,2.87
2023-04-23T20:14:32.890Z,3.60
2023-04-23T20:16:59.320Z,2.67
2023-04-23T20:19:26.015Z,2.50
2023-04-23T20:21:52.875Z,1.37
2023-04-23T20:24:21.193Z,2.23
2023-04-23T20:26:47.953Z,4.87
2023-04-23T20:29:14.364Z,2.67
2023-04-23T20:31:40.683Z,2.20
2023-04-23T20:34:07.065Z,3.53
2023-04-23T20:36:33.699Z,2.47
2023-04-23T20:39:03.239Z,2.97
2023-04-23T20:41:31.534Z,1.73
2023-04-23T20:43:59.026Z,1.43
2023-04-23T20:46:26.260Z,1.50
2023-04-23T20:48:55.690Z,3.13
2023-04-23T20:51:23.100Z,2.27
2023-04-23T20:53:50.962Z,1.43
2023-04-23T20:56:18.223Z,2.73
2023-04-23T20:58:44.871Z,1.40
2023-04-23T21:01:11.497Z,2.47
2023-04-23T21:03:38.880Z,1.80
2023-04-23T21:06:07.372Z,2.93
2023-04-23T21:08:34.048Z,2.03
2023-04-23T21:11:00.469Z,2.70
2023-04-23T21:13:26.825Z,2.43
2023-04-23T21:15:53.196Z,2.00
2023-04-23T21:18:19.597Z,3.53
2023-04-23T21:20:45.972Z,4.23
2023-04-23T21:23:12.400Z,2.40
2023-04-23T21:25:39.415Z,2.63
2023-04-23T21:28:07.174Z,3.03
2023-04-23T21:30:47.922Z,4.17
2023-04-23T21:33:15.539Z,3.00
2023-04-23T21:35:42.874Z,1.40
2023-04-23T21:38:09.606Z,2.07
2023-04-23T21:40:39.643Z,1.83
2023-04-23T21:43:07.143Z,2.97
2023-04-23T21:45:33.943Z,1.37
2023-04-23T21:48:00.906Z,1.63
2023-04-23T21:50:29.554Z,2.20
2023-04-23T21:52:58.311Z,2.10
2023-04-23T21:55:30.759Z,3.40
2023-04-23T21:58:09.820Z,1.87
2023-04-23T22:00:44.325Z,1.80
2023-04-23T22:03:11.390Z,1.93
2023-04-23T22:05:38.288Z,2.27
2023-04-23T22:08:06.757Z,2.20
2023-04-23T22:10:33.409Z,1.50
2023-04-23T22:12:59.725Z,2.60
2023-04-23T22:15:28.458Z,1.90
2023-04-23T22:17:55.420Z,2.37
2023-04-23T22:20:23.709Z,2.37
2023-04-23T22:22:50.086Z,2.60
2023-04-23T22:25:17.343Z,3.53
2023-04-23T22:27:43.731Z,3.23
2023-04-23T22:30:11.230Z,3.77
2023-04-23T22:32:38.483Z,3.97
2023-04-23T22:35:06.426Z,4.03
2023-04-23T22:37:32.967Z,1.70
2023-04-23T22:40:00.102Z,2.87
2023-04-23T22:42:26.470Z,1.87
2023-04-23T22:44:52.773Z,3.13
2023-04-23T22:47:19.241Z,1.80
2023-04-23T22:49:45.678Z,2.10
2023-04-23T22:52:14.122Z,1.60
2023-04-23T22:54:41.070Z,2.83
2023-04-23T22:57:07.469Z,1.87
2023-04-23T22:59:33.751Z,4.30
2023-04-23T23:02:00.124Z,2.87
2023-04-23T23:04:26.510Z,3.53
2023-04-23T23:06:52.926Z,1.97
2023-04-23T23:09:19.358Z,1.83
2023-04-23T23:11:46.080Z,5.10
2023-04-23T23:14:12.752Z,5.57
2023-04-23T23:16:39.517Z,1.97
2023-04-23T23:19:06.429Z,5.17
2023-04-23T23:21:33.221Z,3.03
2023-04-23T23:23:59.529Z,3.53
2023-04-23T23:26:25.851Z,5.17
2023-04-23T23:28:52.153Z,4.87
2023-04-23T23:31:18.536Z,3.30
2023-04-23T23:33:45.338Z,1.63
2023-04-23T23:36:11.944Z,2.27
2023-04-23T23:38:38.276Z,3.93
2023-04-23T23:41:04.641Z,2.50
2023-04-23T23:43:31.661Z,1.40
2023-04-23T23:45:58.001Z,1.97
2023-04-23T23:48:24.393Z,2.20
2023-04-23T23:50:50.879Z,2.27
2023-04-23T23:53:17.230Z,2.20
2023-04-23T23:55:43.655Z,3.00
2023-04-23T23:58:09.993Z,1.47
